sensor_id;sensor_type;location;lat;lon;timestamp;pressure;altitude;pressure_sealevel;temperature;humidity
63946;BME280;50122;56.330;43.838;2023-02-17T00:01:22;101691.16;;;-4.26;77.90
63946;BME280;50122;56.330;43.838;2023-02-17T00:03:49;101686.13;;;-4.23;77.61
63946;BME280;50122;56.330;43.838;2023-02-17T00:06:20;101679.88;;;-4.28;77.72
63946;BME280;50122;56.330;43.838;2023-02-17T00:08:47;101678.31;;;-4.24;77.38
63946;BME280;50122;56.330;43.838;2023-02-17T00:11:14;101686.06;;;-4.24;77.18
63946;BME280;50122;56.330;43.838;2023-02-17T00:13:42;101677.19;;;-4.31;77.27
63946;BME280;50122;56.330;43.838;2023-02-17T00:16:19;101677.97;;;-4.32;77.42
63946;BME280;50122;56.330;43.838;2023-02-17T00:18:51;101648.00;;;-4.51;77.61
63946;BME280;50122;56.330;43.838;2023-02-17T00:21:20;101672.25;;;-4.25;78.00
63946;BME280;50122;56.330;43.838;2023-02-17T00:23:48;101672.41;;;-4.22;77.75
63946;BME280;50122;56.330;43.838;2023-02-17T00:26:16;101678.44;;;-4.21;77.93
63946;BME280;50122;56.330;43.838;2023-02-17T00:28:44;101673.97;;;-4.25;77.37
63946;BME280;50122;56.330;43.838;2023-02-17T00:31:14;101674.81;;;-4.25;77.59
63946;BME280;50122;56.330;43.838;2023-02-17T00:33:41;101676.53;;;-4.25;77.86
63946;BME280;50122;56.330;43.838;2023-02-17T00:36:13;101669.88;;;-4.20;77.57
63946;BME280;50122;56.330;43.838;2023-02-17T00:38:45;101675.78;;;-4.23;77.62
63946;BME280;50122;56.330;43.838;2023-02-17T00:41:14;101681.75;;;-4.24;77.76
63946;BME280;50122;56.330;43.838;2023-02-17T00:43:40;101669.31;;;-4.34;77.72
63946;BME280;50122;56.330;43.838;2023-02-17T00:46:07;101679.00;;;-4.28;77.36
63946;BME280;50122;56.330;43.838;2023-02-17T00:48:34;101679.88;;;-4.28;77.56
63946;BME280;50122;56.330;43.838;2023-02-17T00:51:08;101672.00;;;-4.31;77.50
63946;BME280;50122;56.330;43.838;2023-02-17T00:53:36;101674.66;;;-4.29;77.34
63946;BME280;50122;56.330;43.838;2023-02-17T00:56:04;101666.78;;;-4.32;77.56
63946;BME280;50122;56.330;43.838;2023-02-17T00:58:31;101680.88;;;-4.24;77.70
63946;BME280;50122;56.330;43.838;2023-02-17T01:00:59;101669.59;;;-4.26;77.58
63946;BME280;50122;56.330;43.838;2023-02-17T01:03:27;101665.94;;;-4.33;77.83
63946;BME280;50122;56.330;43.838;2023-02-17T01:05:55;101669.31;;;-4.34;78.14
63946;BME280;50122;56.330;43.838;2023-02-17T01:08:22;101672.00;;;-4.31;77.96
63946;BME280;50122;56.330;43.838;2023-02-17T01:10:49;101674.59;;;-4.31;77.95
63946;BME280;50122;56.330;43.838;2023-02-17T01:13:18;101679.88;;;-4.28;78.04
63946;BME280;50122;56.330;43.838;2023-02-17T01:15:50;101672.06;;;-4.29;77.84
63946;BME280;50122;56.330;43.838;2023-02-17T01:18:20;101668.63;;;-4.30;77.74
63946;BME280;50122;56.330;43.838;2023-02-17T01:20:47;101655.44;;;-4.38;77.83
63946;BME280;50122;56.330;43.838;2023-02-17T01:23:14;101673.84;;;-4.28;77.71
63946;BME280;50122;56.330;43.838;2023-02-17T01:25:43;101679.81;;;-4.29;78.04
63946;BME280;50122;56.330;43.838;2023-02-17T01:28:14;101674.66;;;-4.29;78.14
63946;BME280;50122;56.330;43.838;2023-02-17T01:30:41;101681.59;;;-4.28;77.99
63946;BME280;50122;56.330;43.838;2023-02-17T01:33:08;101678.94;;;-4.30;77.86
63946;BME280;50122;56.330;43.838;2023-02-17T01:35:35;101679.06;;;-4.27;77.81
63946;BME280;50122;56.330;43.838;2023-02-17T01:38:02;101679.13;;;-4.25;78.32
63946;BME280;50122;56.330;43.838;2023-02-17T01:40:28;101674.66;;;-4.29;77.66
63946;BME280;50122;56.330;43.838;2023-02-17T01:42:55;101688.47;;;-4.29;77.46
63946;BME280;50122;56.330;43.838;2023-02-17T01:47:55;101689.91;;;-4.36;77.71
63946;BME280;50122;56.330;43.838;2023-02-17T01:50:29;101691.41;;;-4.41;77.28
63946;BME280;50122;56.330;43.838;2023-02-17T01:52:59;101702.50;;;-4.43;77.54
63946;BME280;50122;56.330;43.838;2023-02-17T01:55:28;101695.66;;;-4.43;78.63
63946;BME280;50122;56.330;43.838;2023-02-17T01:57:58;101694.84;;;-4.42;78.49
63946;BME280;50122;56.330;43.838;2023-02-17T02:00:27;101682.69;;;-4.44;78.62
63946;BME280;50122;56.330;43.838;2023-02-17T02:02:56;101682.63;;;-4.46;78.06
63946;BME280;50122;56.330;43.838;2023-02-17T02:05:24;101685.03;;;-4.50;78.09
63946;BME280;50122;56.330;43.838;2023-02-17T02:07:51;101677.06;;;-4.55;78.47
63946;BME280;50122;56.330;43.838;2023-02-17T02:10:18;101689.47;;;-4.46;78.35
63946;BME280;50122;56.330;43.838;2023-02-17T02:12:46;101631.31;;;-4.82;78.63
63946;BME280;50122;56.330;43.838;2023-02-17T02:18:04;101688.47;;;-4.50;78.40
63946;BME280;50122;56.330;43.838;2023-02-17T02:20:57;101690.75;;;-4.58;78.74
63946;BME280;50122;56.330;43.838;2023-02-17T02:30:06;101693.84;;;-4.66;78.64
63946;BME280;50122;56.330;43.838;2023-02-17T02:36:02;101683.38;;;-4.69;78.96
63946;BME280;50122;56.330;43.838;2023-02-17T02:41:15;101692.19;;;-4.64;79.10
63946;BME280;50122;56.330;43.838;2023-02-17T02:43:44;101693.19;;;-4.61;78.84
63946;BME280;50122;56.330;43.838;2023-02-17T02:46:11;101704.34;;;-4.62;78.55
63946;BME280;50122;56.330;43.838;2023-02-17T02:48:39;101705.72;;;-4.70;78.24
63946;BME280;50122;56.330;43.838;2023-02-17T02:56:25;101707.81;;;-4.82;78.84
63946;BME280;50122;56.330;43.838;2023-02-17T03:01:33;101716.00;;;-4.91;78.68
63946;BME280;50122;56.330;43.838;2023-02-17T03:04:12;101711.41;;;-4.98;79.01
63946;BME280;50122;56.330;43.838;2023-02-17T03:06:48;101713.47;;;-5.11;78.75
63946;BME280;50122;56.330;43.838;2023-02-17T03:09:20;101714.56;;;-5.25;78.35
63946;BME280;50122;56.330;43.838;2023-02-17T03:11:48;101716.41;;;-5.42;78.39
63946;BME280;50122;56.330;43.838;2023-02-17T03:14:18;101714.97;;;-5.55;79.11
63946;BME280;50122;56.330;43.838;2023-02-17T03:16:48;101716.19;;;-5.66;79.14
63946;BME280;50122;56.330;43.838;2023-02-17T03:19:16;101719.09;;;-5.78;79.37
63946;BME280;50122;56.330;43.838;2023-02-17T03:21:49;101705.72;;;-5.89;79.63
63946;BME280;50122;56.330;43.838;2023-02-17T03:24:17;101714.69;;;-6.00;79.62
63946;BME280;50122;56.330;43.838;2023-02-17T03:26:44;101706.50;;;-6.09;79.80
63946;BME280;50122;56.330;43.838;2023-02-17T03:29:10;101707.94;;;-6.16;80.29
63946;BME280;50122;56.330;43.838;2023-02-17T03:31:38;101708.13;;;-6.12;80.22
63946;BME280;50122;56.330;43.838;2023-02-17T03:34:05;101706.38;;;-6.13;80.69
63946;BME280;50122;56.330;43.838;2023-02-17T03:36:32;101702.84;;;-6.15;80.25
63946;BME280;50122;56.330;43.838;2023-02-17T03:38:59;101699.56;;;-6.12;80.98
63946;BME280;50122;56.330;43.838;2023-02-17T03:41:25;101666.91;;;-6.31;80.85
63946;BME280;50122;56.330;43.838;2023-02-17T03:43:52;101704.25;;;-6.21;80.90
63946;BME280;50122;56.330;43.838;2023-02-17T03:46:19;101697.13;;;-6.27;80.68
63946;BME280;50122;56.330;43.838;2023-02-17T03:48:47;101699.47;;;-6.32;81.09
63946;BME280;50122;56.330;43.838;2023-02-17T03:51:21;101704.06;;;-6.44;81.35
63946;BME280;50122;56.330;43.838;2023-02-17T03:53:49;101703.28;;;-6.41;81.41
63946;BME280;50122;56.330;43.838;2023-02-17T03:56:16;101701.84;;;-6.36;81.51
63946;BME280;50122;56.330;43.838;2023-02-17T03:58:43;101673.91;;;-6.47;81.71
63946;BME280;50122;56.330;43.838;2023-02-17T04:01:11;101708.50;;;-6.40;82.39
63946;BME280;50122;56.330;43.838;2023-02-17T04:03:39;101696.34;;;-6.44;82.24
63946;BME280;50122;56.330;43.838;2023-02-17T04:06:07;101701.84;;;-6.36;82.52
63946;BME280;50122;56.330;43.838;2023-02-17T04:08:34;101699.25;;;-6.36;82.86
63946;BME280;50122;56.330;43.838;2023-02-17T04:11:03;101689.63;;;-6.40;83.02
63946;BME280;50122;56.330;43.838;2023-02-17T04:13:31;101701.09;;;-6.34;83.16
63946;BME280;50122;56.330;43.838;2023-02-17T04:16:00;101695.38;;;-6.28;83.25
63946;BME280;50122;56.330;43.838;2023-02-17T04:18:30;101710.38;;;-6.19;83.34
63946;BME280;50122;56.330;43.838;2023-02-17T04:20:57;101705.09;;;-6.22;82.88
63946;BME280;50122;56.330;43.838;2023-02-17T04:23:24;101692.34;;;-6.37;82.88
63946;BME280;50122;56.330;43.838;2023-02-17T04:25:51;101705.28;;;-6.36;82.57
63946;BME280;50122;56.330;43.838;2023-02-17T04:28:18;101704.19;;;-6.41;82.86
63946;BME280;50122;56.330;43.838;2023-02-17T04:30:48;101677.94;;;-6.52;83.59
63946;BME280;50122;56.330;43.838;2023-02-17T04:33:18;101711.09;;;-6.40;83.58
63946;BME280;50122;56.330;43.838;2023-02-17T04:35:46;101677.00;;;-6.54;83.81
63946;BME280;50122;56.330;43.838;2023-02-17T04:38:13;101692.34;;;-6.37;83.77
63946;BME280;50122;56.330;43.838;2023-02-17T04:40:40;101688.91;;;-6.38;84.05
63946;BME280;50122;56.330;43.838;2023-02-17T04:43:07;101681.25;;;-6.36;84.37
63946;BME280;50122;56.330;43.838;2023-02-17T04:45:36;101696.84;;;-6.15;84.34
63946;BME280;50122;56.330;43.838;2023-02-17T04:48:03;101689.31;;;-6.11;84.52
63946;BME280;50122;56.330;43.838;2023-02-17T04:50:32;101684.75;;;-5.97;84.77
63946;BME280;50122;56.330;43.838;2023-02-17T04:52:59;101688.03;;;-5.81;84.83
63946;BME280;50122;56.330;43.838;2023-02-17T04:55:26;101681.16;;;-5.63;85.17
63946;BME280;50122;56.330;43.838;2023-02-17T04:57:52;101679.19;;;-5.49;84.64
63946;BME280;50122;56.330;43.838;2023-02-17T05:00:19;101680.75;;;-5.33;84.76
63946;BME280;50122;56.330;43.838;2023-02-17T05:02:46;101677.69;;;-5.24;84.30
63946;BME280;50122;56.330;43.838;2023-02-17T05:05:13;101667.38;;;-5.24;84.00
63946;BME280;50122;56.330;43.838;2023-02-17T05:07:42;101665.41;;;-5.30;83.46
63946;BME280;50122;56.330;43.838;2023-02-17T05:10:08;101666.28;;;-5.29;82.72
63946;BME280;50122;56.330;43.838;2023-02-17T05:12:35;101667.50;;;-5.41;81.81
63946;BME280;50122;56.330;43.838;2023-02-17T05:15:02;101662.59;;;-5.55;81.29
63946;BME280;50122;56.330;43.838;2023-02-17T05:17:29;101672.31;;;-5.68;81.67
63946;BME280;50122;56.330;43.838;2023-02-17T05:19:56;101677.09;;;-5.77;81.53
63946;BME280;50122;56.330;43.838;2023-02-17T05:22:23;101680.78;;;-5.90;81.93
63946;BME280;50122;56.330;43.838;2023-02-17T05:24:49;101682.34;;;-5.94;81.90
63946;BME280;50122;56.330;43.838;2023-02-17T05:27:16;101676.00;;;-6.02;81.70
63946;BME280;50122;56.330;43.838;2023-02-17T05:29:43;101657.47;;;-6.13;82.10
63946;BME280;50122;56.330;43.838;2023-02-17T05:32:10;101675.88;;;-6.05;82.07
63946;BME280;50122;56.330;43.838;2023-02-17T05:34:37;101675.78;;;-6.06;82.60
